Terminal Aerodrome Forecast
Issued by NWS Sioux Falls, SD

Home | Current Version | Previous Version | Graphics & Text | Print | Product List | Glossary On
Versions: 1 2 3 4 5 6 7 8 9 10 11 12 13 14 15
134
FTUS43 KFSD 220457 AAB
TAFHON
TAF AMD
KHON 220457Z 2205/2224 35008KT P6SM VCTS BKN025CB OVC040
     FM220515 30031G60KT 2SM +TSRA BR OVC012CB
     FM220535 VRB12G28KT 6SM -TSRA BR BKN015CB OVC060
     FM220615 02007KT P6SM BKN060
     FM220700 30005KT P6SM SCT250
     FM221700 32009KT P6SM FEW250
     FM221900 31012KT P6SM SCT200=

USA.gov is the U.S. government's official web portal to all federal, state and local government web resources and services.